Time;durP1;ratioP1;P1;durP2;ratioP2;P2;SDS_P1;SDS_P2;PMS_P1;PMS_P2;Temp;Humidity;BMP_temperature;BMP_pressure;BME280_temperature;BME280_humidity;BME280_pressure;Samples;Min_cycle;Max_cycle;Signal;HPM_P1;HPM_P2
2022/07/07 00:01:26;;;;;;;14.50;13.03;;;;;;;22.26;66.12;96845.28;5087210;28;20205;-71
2022/07/07 00:03:53;;;;;;;14.63;13.03;;;;;;;22.22;66.68;96851.00;5087819;28;20199;-72
2022/07/07 00:06:21;;;;;;;14.77;13.43;;;;;;;22.07;66.64;96853.28;5087011;28;20283;-73
2022/07/07 00:08:47;;;;;;;16.47;14.77;;;;;;;21.98;67.15;96861.22;5069249;28;20181;-72
2022/07/07 00:11:16;;;;;;;16.30;14.70;;;;;;;21.88;67.71;96853.38;5086934;28;20681;-71
2022/07/07 00:13:43;;;;;;;15.10;13.60;;;;;;;21.76;67.72;96847.38;5068731;28;20196;-72
2022/07/07 00:16:10;;;;;;;16.90;14.60;;;;;;;21.61;67.76;96853.28;5087155;28;20186;-72
2022/07/07 00:18:37;;;;;;;15.97;14.47;;;;;;;21.25;68.94;96857.47;5086780;28;20186;-71
2022/07/07 00:21:05;;;;;;;17.33;15.57;;;;;;;20.83;70.35;96856.06;5087178;28;20201;-72
2022/07/07 00:23:32;;;;;;;16.50;14.80;;;;;;;20.66;71.25;96857.56;5086785;28;20253;-72
2022/07/07 00:26:02;;;;;;;17.47;15.67;;;;;;;20.44;72.34;96860.44;5086825;28;20256;-73
2022/07/07 00:28:30;;;;;;;16.50;14.80;;;;;;;20.45;71.91;96848.94;5086548;28;20668;-72
2022/07/07 00:30:57;;;;;;;16.70;14.97;;;;;;;20.53;71.39;96861.41;5068474;28;20223;-72
2022/07/07 00:33:24;;;;;;;16.23;14.13;;;;;;;20.87;70.20;96860.09;5068873;28;20184;-72
2022/07/07 00:35:52;;;;;;;15.90;14.30;;;;;;;21.03;68.75;96855.13;5068158;28;20558;-72
2022/07/07 00:38:20;;;;;;;15.20;13.70;;;;;;;21.20;67.73;96853.59;5086885;28;20192;-72
2022/07/07 00:40:51;;;;;;;17.00;15.27;;;;;;;21.32;67.34;96855.13;5086498;28;20182;-71
2022/07/07 00:43:20;;;;;;;15.27;13.67;;;;;;;21.40;66.10;96860.50;5068830;28;20187;-71
2022/07/07 00:45:49;;;;;;;16.67;14.80;;;;;;;21.48;65.96;96855.38;5068354;28;20342;-71
2022/07/07 00:48:20;;;;;;;15.97;14.27;;;;;;;21.63;65.52;96859.22;5086898;28;20193;-72
2022/07/07 00:50:48;;;;;;;15.43;13.83;;;;;;;21.21;66.33;96844.72;5086802;28;20185;-72
2022/07/07 00:53:15;;;;;;;14.93;13.53;;;;;;;21.20;66.47;96856.25;5086416;28;20222;-73
2022/07/07 00:55:42;;;;;;;19.03;14.23;;;;;;;21.02;67.63;96859.56;5086779;28;20195;-73
2022/07/07 00:58:09;;;;;;;14.70;13.30;;;;;;;21.29;67.10;96860.69;5086329;28;20185;-73
2022/07/07 01:00:36;;;;;;;15.20;13.70;;;;;;;21.40;66.53;96849.97;5087978;28;20254;-73
2022/07/07 01:03:03;;;;;;;15.07;13.57;;;;;;;21.29;66.60;96850.94;5090422;28;20191;-73
2022/07/07 01:05:32;;;;;;;15.43;13.87;;;;;;;21.23;67.41;96855.94;5090342;28;20227;-73
2022/07/07 01:08:02;;;;;;;15.53;13.90;;;;;;;21.34;67.33;96863.72;5072155;28;20192;-74
2022/07/07 01:10:31;;;;;;;15.10;13.70;;;;;;;21.25;67.31;96859.28;5072076;28;20188;-73
2022/07/07 01:13:02;;;;;;;15.47;13.87;;;;;;;21.33;67.33;96862.06;5072902;28;20207;-74
2022/07/07 01:15:29;;;;;;;15.17;13.77;;;;;;;21.28;67.34;96851.94;5089002;28;20215;-74
2022/07/07 01:17:57;;;;;;;15.77;14.17;;;;;;;21.29;67.42;96855.41;5090394;28;20223;-72
2022/07/07 01:20:25;;;;;;;14.73;13.33;;;;;;;21.29;67.62;96855.41;5088782;28;20200;-73
2022/07/07 01:22:55;;;;;;;16.13;14.53;;;;;;;21.04;68.28;96851.56;5090415;28;20241;-73
2022/07/07 01:25:23;;;;;;;17.30;15.10;;;;;;;20.67;69.35;96840.81;5090628;28;20188;-73
2022/07/07 01:27:51;;;;;;;17.50;15.20;;;;;;;20.39;70.91;96853.91;5071965;28;20238;-74
2022/07/07 01:30:19;;;;;;;16.57;14.83;;;;;;;20.17;72.15;96849.66;5072291;28;20714;-73
2022/07/07 01:32:46;;;;;;;16.03;14.40;;;;;;;20.23;71.26;96850.00;5090317;28;20191;-72
2022/07/07 01:35:13;;;;;;;15.70;14.10;;;;;;;20.28;71.26;96849.56;5090198;28;20684;-73
2022/07/07 01:37:40;;;;;;;16.27;14.67;;;;;;;20.53;70.62;96845.63;5089737;28;20217;-73
2022/07/07 01:40:08;;;;;;;15.77;14.23;;;;;;;20.63;70.00;96839.41;5071412;28;20189;-73
2022/07/07 01:42:36;;;;;;;15.43;13.93;;;;;;;20.46;70.16;96837.47;5071971;28;20203;-73
2022/07/07 01:45:03;;;;;;;19.87;16.00;;;;;;;20.26;71.13;96838.38;5089533;28;20229;-73
2022/07/07 01:47:31;;;;;;;16.30;14.60;;;;;;;20.28;70.98;96839.91;5090156;28;20223;-73
2022/07/07 01:49:58;;;;;;;18.80;15.00;;;;;;;20.62;70.04;96852.72;5089695;28;20189;-73
2022/07/07 01:52:25;;;;;;;15.53;13.83;;;;;;;20.78;68.95;96845.94;5089818;28;20188;-73
2022/07/07 01:54:53;;;;;;;14.93;13.33;;;;;;;20.98;67.99;96842.34;5071272;28;20736;-73
2022/07/07 01:57:21;;;;;;;15.83;14.23;;;;;;;21.09;67.09;96838.78;5089860;28;20185;-73
2022/07/07 01:59:48;;;;;;;15.43;13.80;;;;;;;21.02;66.31;96832.41;5071801;28;20668;-73
2022/07/07 02:02:15;;;;;;;15.90;14.30;;;;;;;21.20;66.36;96846.53;5071582;28;21095;-72
2022/07/07 02:04:42;;;;;;;16.33;13.63;;;;;;;21.32;66.19;96850.69;5071858;28;20189;-73
2022/07/07 02:07:09;;;;;;;15.90;14.27;;;;;;;21.38;65.71;96858.03;5071072;28;20255;-72
2022/07/07 02:09:36;;;;;;;13.33;12.10;;;;;;;21.44;65.82;96860.09;5089553;28;20261;-73
2022/07/07 02:12:04;;;;;;;14.10;12.70;;;;;;;21.35;65.78;96829.31;5088683;28;20669;-74
2022/07/07 02:14:31;;;;;;;14.37;12.87;;;;;;;21.46;65.80;96863.41;5089334;28;20288;-73
2022/07/07 02:16:58;;;;;;;14.07;12.67;;;;;;;21.40;65.42;96852.59;5089178;28;20589;-72
2022/07/07 02:19:25;;;;;;;14.37;12.87;;;;;;;21.43;65.98;96863.69;5088918;28;20192;-73
2022/07/07 02:21:53;;;;;;;14.47;12.97;;;;;;;21.34;66.23;96863.72;5071443;28;20246;-75
2022/07/07 02:24:20;;;;;;;14.23;12.73;;;;;;;21.29;66.24;96861.50;5088945;28;20181;-74
2022/07/07 02:26:47;;;;;;;13.37;12.07;;;;;;;21.33;66.14;96869.97;5088972;28;20266;-73
2022/07/07 02:29:14;;;;;;;14.10;12.70;;;;;;;21.31;65.58;96866.66;5088870;28;20573;-72
2022/07/07 02:31:41;;;;;;;12.33;11.13;;;;;;;21.16;65.82;96865.41;5088680;28;20491;-72
2022/07/07 02:34:09;;;;;;;13.93;12.53;;;;;;;21.04;65.54;96862.88;5070900;28;20276;-72
2022/07/07 02:36:36;;;;;;;13.70;12.33;;;;;;;20.60;67.20;96860.75;5088428;28;20601;-72
2022/07/07 02:39:03;;;;;;;15.47;12.73;;;;;;;20.48;68.13;96853.94;5089123;28;20610;-73
2022/07/07 02:41:30;;;;;;;13.60;12.27;;;;;;;20.71;67.87;96865.88;5088388;28;20224;-73
2022/07/07 02:43:57;;;;;;;13.17;11.63;;;;;;;20.88;66.68;96857.31;5089071;28;20261;-73
2022/07/07 02:46:24;;;;;;;13.50;12.17;;;;;;;20.93;66.32;96849.00;5088638;28;20279;-72
2022/07/07 02:48:51;;;;;;;13.20;11.80;;;;;;;20.76;66.49;96847.88;5070540;28;20185;-72
2022/07/07 02:51:19;;;;;;;13.47;12.07;;;;;;;20.84;66.40;96855.94;5088622;28;20184;-72
2022/07/07 02:53:46;;;;;;;14.10;12.80;;;;;;;20.86;65.86;96851.34;5070239;28;20266;-73
2022/07/07 02:56:13;;;;;;;14.13;12.63;;;;;;;20.85;66.38;96849.72;5088735;28;20216;-72
2022/07/07 02:58:40;;;;;;;13.70;12.37;;;;;;;20.66;66.78;96864.63;5088288;28;20238;-72
2022/07/07 03:01:07;;;;;;;14.97;13.33;;;;;;;20.34;68.09;96856.13;5088785;28;20220;-72
2022/07/07 03:03:34;;;;;;;15.17;13.60;;;;;;;19.95;69.70;96858.56;5088501;28;20191;-71
2022/07/07 03:06:02;;;;;;;15.83;14.27;;;;;;;19.76;70.16;96860.28;5088155;28;20255;-73
2022/07/07 03:08:29;;;;;;;15.67;14.07;;;;;;;19.77;70.71;96864.56;5088085;28;20192;-72
2022/07/07 03:11:00;;;;;;;16.60;14.73;;;;;;;19.79;70.63;96860.00;5088130;28;20200;-71
2022/07/07 03:13:28;;;;;;;17.53;15.73;;;;;;;19.53;71.73;96864.88;5088360;28;20685;-72
2022/07/07 03:15:56;;;;;;;16.57;14.83;;;;;;;19.46;71.82;96859.28;5070035;28;20205;-72
2022/07/07 03:18:23;;;;;;;16.87;15.17;;;;;;;19.45;71.22;96854.16;5087992;28;20211;-71
2022/07/07 03:20:51;;;;;;;16.53;14.50;;;;;;;19.48;70.42;96857.38;5087827;28;20286;-71
2022/07/07 03:23:19;;;;;;;16.57;14.83;;;;;;;19.40;70.28;96851.09;5087083;28;20658;-72
2022/07/07 03:25:47;;;;;;;18.00;15.20;;;;;;;19.41;70.28;96860.66;5052903;28;20199;-72
2022/07/07 03:28:14;;;;;;;17.00;15.23;;;;;;;19.57;69.79;96853.13;5087882;28;20187;-72
2022/07/07 03:30:42;;;;;;;16.43;14.73;;;;;;;19.56;69.75;96848.00;5088014;28;20187;-72
2022/07/07 03:33:09;;;;;;;15.77;14.17;;;;;;;19.79;68.79;96850.34;5055590;28;20762;-73
2022/07/07 03:35:38;;;;;;;15.50;13.90;;;;;;;20.02;68.33;96859.72;5067214;28;20188;-74
2022/07/07 03:38:05;;;;;;;16.77;14.97;;;;;;;20.20;68.16;96850.25;5066930;28;20239;-73
2022/07/07 03:40:34;;;;;;;24.50;15.37;;;;;;;20.36;67.77;96848.94;5049663;28;20212;-73
2022/07/07 03:43:01;;;;;;;17.43;14.37;;;;;;;20.48;67.21;96859.22;5067302;28;20205;-73
2022/07/07 03:45:28;;;;;;;16.80;12.77;;;;;;;20.44;67.24;96818.34;5067501;28;20197;-73
2022/07/07 03:47:55;;;;;;;15.03;13.00;;;;;;;20.85;66.47;96856.78;5067456;28;20217;-73
2022/07/07 03:50:22;;;;;;;15.40;13.27;;;;;;;21.03;65.85;96863.88;5049020;28;20204;-73
2022/07/07 03:52:49;;;;;;;14.67;12.87;;;;;;;21.56;64.08;96858.13;5067515;28;20204;-75
2022/07/07 03:55:17;;;;;;;13.60;12.30;;;;;;;21.72;63.28;96861.84;5067088;28;20212;-74
2022/07/07 03:57:44;;;;;;;14.37;12.87;;;;;;;21.82;63.01;96865.31;5067408;28;20189;-74
2022/07/07 04:00:12;;;;;;;13.60;12.30;;;;;;;22.52;61.35;96854.16;5067013;28;20182;-75
2022/07/07 04:02:39;;;;;;;15.63;11.37;;;;;;;23.31;59.33;96851.66;5048965;28;20687;-75
2022/07/07 04:05:07;;;;;;;14.53;11.43;;;;;;;23.71;57.12;96857.28;5070328;28;20198;-74
2022/07/07 04:07:34;;;;;;;11.63;10.53;;;;;;;24.07;57.40;96861.50;5075917;28;20256;-74
2022/07/07 04:10:02;;;;;;;13.83;10.73;;;;;;;24.41;55.51;96858.84;5069612;28;20695;-75
2022/07/07 04:12:30;;;;;;;12.00;10.87;;;;;;;24.43;55.56;96850.72;5066697;28;20203;-75
2022/07/07 04:14:57;;;;;;;12.10;10.40;;;;;;;25.11;53.81;96854.06;5067215;28;20187;-73
2022/07/07 04:17:24;;;;;;;13.27;10.00;;;;;;;25.48;53.24;96860.59;5067013;28;20220;-74
2022/07/07 04:19:51;;;;;;;11.87;9.50;;;;;;;25.65;53.05;96861.41;5049283;28;20679;-75
2022/07/07 04:22:18;;;;;;;10.57;9.50;;;;;;;25.95;51.96;96865.16;5069337;28;20204;-73
2022/07/07 04:24:45;;;;;;;11.17;9.40;;;;;;;26.20;50.30;96856.16;5066836;28;20201;-75
2022/07/07 04:27:12;;;;;;;11.30;8.90;;;;;;;26.25;50.05;96851.19;5067117;28;20216;-73
2022/07/07 04:29:39;;;;;;;13.90;9.93;;;;;;;26.16;51.20;96865.47;5067028;28;20189;-73
2022/07/07 04:32:07;;;;;;;11.33;8.97;;;;;;;26.37;50.01;96855.09;5074505;28;20199;-73
2022/07/07 04:34:34;;;;;;;9.47;8.53;;;;;;;26.52;49.53;96858.72;5061561;28;20664;-73
2022/07/07 04:37:01;;;;;;;13.37;10.33;;;;;;;26.54;49.21;96848.72;5066384;28;20224;-74
2022/07/07 04:39:29;;;;;;;9.87;8.80;;;;;;;26.70;49.65;96856.63;5066802;28;20181;-73
2022/07/07 04:41:56;;;;;;;10.17;9.07;;;;;;;26.63;49.55;96857.50;5066472;28;20185;-73
2022/07/07 04:44:23;;;;;;;11.80;8.00;;;;;;;26.96;48.97;96858.97;5066727;28;20182;-73
2022/07/07 04:46:50;;;;;;;10.77;9.50;;;;;;;26.78;50.38;96861.91;5065857;28;20219;-73
2022/07/07 04:49:18;;;;;;;12.80;9.40;;;;;;;27.04;48.92;96859.75;5049001;28;20199;-73
2022/07/07 04:51:47;;;;;;;13.87;9.03;;;;;;;27.16;49.75;96849.56;5066427;28;20588;-73
2022/07/07 04:54:14;;;;;;;11.27;8.87;;;;;;;27.07;49.49;96859.41;5066655;28;20637;-73
2022/07/07 04:56:42;;;;;;;13.27;8.53;;;;;;;26.76;50.02;96863.91;5066673;28;20189;-75
2022/07/07 04:59:08;;;;;;;9.50;8.60;;;;;;;26.85;51.13;96867.38;5066503;28;20242;-74
2022/07/07 05:01:36;;;;;;;9.90;8.30;;;;;;;27.02;50.90;96863.59;5066865;28;20698;-74
2022/07/07 05:04:03;;;;;;;11.37;7.93;;;;;;;27.02;50.73;96863.59;5066556;28;20228;-74
2022/07/07 05:06:31;;;;;;;9.63;8.47;;;;;;;27.24;50.19;96860.94;5031846;28;20807;-73
2022/07/07 05:08:59;;;;;;;10.13;9.17;;;;;;;27.13;50.53;96869.34;5066619;28;20185;-73
2022/07/07 05:11:26;;;;;;;16.47;8.53;;;;;;;27.08;50.24;96868.22;5066768;28;20279;-73
2022/07/07 05:13:53;;;;;;;15.50;9.60;;;;;;;27.18;50.61;96863.50;5066776;28;20304;-74
2022/07/07 05:16:20;;;;;;;11.33;8.77;;;;;;;27.27;50.84;96873.88;5066421;28;20186;-73
2022/07/07 05:18:47;;;;;;;9.33;7.90;;;;;;;27.28;49.91;96870.25;5068321;28;20193;-73
2022/07/07 05:21:14;;;;;;;12.43;8.03;;;;;;;27.31;50.24;96869.03;5060509;28;20189;-74
2022/07/07 05:23:42;;;;;;;10.53;9.00;;;;;;;27.23;49.53;96806.09;5082473;28;20200;-74
2022/07/07 05:26:09;;;;;;;9.53;8.47;;;;;;;27.60;49.93;96868.34;5063943;28;20223;-74
2022/07/07 05:28:41;;;;;;;10.97;8.47;;;;;;;27.67;49.59;96877.25;5062829;28;20245;-74
2022/07/07 05:31:12;;;;;;;10.90;8.33;;;;;;;27.52;49.69;96879.03;5073641;28;20759;-73
2022/07/07 05:33:41;;;;;;;8.63;7.33;;;;;;;27.55;49.13;96865.41;5069153;28;20189;-73
2022/07/07 05:36:09;;;;;;;8.60;7.70;;;;;;;27.55;49.51;96871.56;5068230;28;20236;-74
2022/07/07 05:38:36;;;;;;;16.20;8.53;;;;;;;27.55;48.62;96876.88;5067697;28;20231;-74
2022/07/07 05:41:03;;;;;;;8.83;7.93;;;;;;;27.51;49.29;96888.06;5067773;28;20236;-76
2022/07/07 05:43:30;;;;;;;10.60;6.63;;;;;;;27.42;48.75;96884.63;5076116;28;20216;-74
2022/07/07 05:45:57;;;;;;;8.80;7.40;;;;;;;27.51;49.11;96890.72;5058494;28;20197;-74
2022/07/07 05:48:24;;;;;;;7.13;6.43;;;;;;;27.61;48.69;96891.28;5070166;28;20221;-74
2022/07/07 05:50:51;;;;;;;6.23;4.40;;;;;;;27.35;47.15;96875.69;5070665;28;20189;-74
2022/07/07 05:53:21;;;;;;;5.97;4.13;;;;;;;27.30;47.64;96905.47;5051485;28;20193;-74
2022/07/07 05:55:48;;;;;;;5.60;3.40;;;;;;;26.98;47.58;96897.69;5051535;28;20669;-74
2022/07/07 05:58:15;;;;;;;3.33;3.03;;;;;;;26.76;48.14;96906.44;5037410;28;20619;-74
2022/07/07 06:00:42;;;;;;;4.13;3.50;;;;;;;26.54;48.24;96907.19;5038406;28;20636;-74
2022/07/07 06:03:17;;;;;;;4.53;3.53;;;;;;;26.23;48.93;96909.78;5068993;28;20199;-74
2022/07/07 06:05:44;;;;;;;5.60;3.80;;;;;;;26.43;48.40;96904.88;5089646;28;20200;-74
2022/07/07 06:08:11;;;;;;;6.27;3.77;;;;;;;26.32;48.31;96907.91;5051364;28;20224;-75
2022/07/07 06:10:38;;;;;;;7.33;3.87;;;;;;;26.51;48.10;96904.84;5071160;28;20196;-74
2022/07/07 06:13:05;;;;;;;4.07;3.53;;;;;;;26.61;47.79;96901.00;5068442;28;20286;-74
2022/07/07 06:15:35;;;;;;;4.63;3.50;;;;;;;26.77;47.41;96905.44;5051260;28;20615;-73
2022/07/07 06:18:03;;;;;;;5.63;4.00;;;;;;;26.65;46.80;96908.63;5034339;28;20201;-74
2022/07/07 06:20:34;;;;;;;3.67;3.30;;;;;;;26.51;46.22;96921.63;5069286;28;20220;-75
2022/07/07 06:23:02;;;;;;;4.27;2.80;;;;;;;26.10;47.26;96914.78;5079021;28;20207;-75
2022/07/07 06:25:29;;;;;;;3.13;2.83;;;;;;;26.10;47.45;96919.25;5078544;28;20206;-75
2022/07/07 06:27:58;;;;;;;2.93;2.60;;;;;;;26.18;47.33;96917.41;5086782;28;20223;-74
2022/07/07 06:30:25;;;;;;;3.50;2.87;;;;;;;26.42;47.47;96919.19;5071685;28;20243;-74
2022/07/07 06:32:53;;;;;;;3.67;3.00;;;;;;;26.56;46.57;96895.34;5067839;28;20304;-75
2022/07/07 06:35:22;;;;;;;7.33;3.20;;;;;;;26.72;46.32;96899.81;5068555;28;20181;-74
2022/07/07 06:37:50;;;;;;;3.53;3.23;;;;;;;26.88;45.88;96907.72;5052334;28;20232;-74
2022/07/07 06:40:20;;;;;;;3.80;3.07;;;;;;;26.59;46.51;96907.47;5066978;28;20205;-74
2022/07/07 06:42:47;;;;;;;3.90;3.60;;;;;;;26.72;46.61;96901.63;5068036;28;20185;-75
2022/07/07 06:45:21;;;;;;;3.73;2.97;;;;;;;26.81;46.16;96890.78;5051449;28;20724;-75
2022/07/07 06:47:48;;;;;;;3.50;3.20;;;;;;;27.21;46.30;96903.03;5070273;28;20597;-75
2022/07/07 06:50:23;;;;;;;4.27;3.40;;;;;;;27.63;44.87;96910.56;5054541;28;20196;-77
2022/07/07 06:52:50;;;;;;;3.47;3.17;;;;;;;27.44;44.59;96900.41;5071102;28;20180;-75
2022/07/07 06:55:18;;;;;;;6.43;3.30;;;;;;;27.54;44.64;96900.97;5069907;28;20258;-76
2022/07/07 06:57:45;;;;;;;3.10;2.80;;;;;;;27.51;44.36;96904.84;5088178;28;20691;-75
2022/07/07 07:00:13;;;;;;;3.87;2.60;;;;;;;27.17;45.10;96904.38;5088314;28;20193;-77
2022/07/07 07:02:44;;;;;;;3.30;3.00;;;;;;;27.27;44.89;96916.44;5087387;28;20196;-76
